createdAt,value
2022-09-12T00:00:17.816Z,13.37
2022-09-12T00:03:19.240Z,13.27
2022-09-12T00:06:24.263Z,13.17
2022-09-12T00:09:25.682Z,13.10
2022-09-12T00:12:27.077Z,13.15
2022-09-12T00:15:28.493Z,13.09
2022-09-12T00:18:29.893Z,13.04
2022-09-12T00:21:33.814Z,13.03
2022-09-12T00:24:35.246Z,13.01
2022-09-12T00:27:36.704Z,12.90
2022-09-12T00:30:46.304Z,12.85
2022-09-12T00:33:47.892Z,12.78
2022-09-12T00:36:49.313Z,12.77
2022-09-12T00:39:50.775Z,12.79
2022-09-12T00:42:52.198Z,12.83
2022-09-12T00:45:53.682Z,12.91
2022-09-12T00:49:01.443Z,12.87
2022-09-12T00:52:05.913Z,12.81
2022-09-12T00:55:40.405Z,12.81
2022-09-12T00:58:54.396Z,12.75
2022-09-12T01:01:56.485Z,12.65
2022-09-12T01:04:58.035Z,12.63
2022-09-12T01:08:01.402Z,12.62
2022-09-12T01:11:05.181Z,12.65
2022-09-12T01:14:07.887Z,12.73
2022-09-12T01:17:13.257Z,12.79
2022-09-12T01:20:41.684Z,12.84
2022-09-12T01:23:45.882Z,12.82
2022-09-12T01:26:47.167Z,12.79
2022-09-12T01:30:17.326Z,12.72
2022-09-12T01:33:33.933Z,12.69
2022-09-12T01:37:15.018Z,12.73
2022-09-12T01:40:40.109Z,12.78
2022-09-12T01:43:51.560Z,12.77
2022-09-12T01:47:00.858Z,12.84
2022-09-12T01:50:07.936Z,12.79
2022-09-12T01:53:16.853Z,12.83
2022-09-12T01:56:24.245Z,12.87
2022-09-12T01:59:32.851Z,12.89
2022-09-12T02:02:42.942Z,12.85
2022-09-12T02:05:53.468Z,12.81
2022-09-12T02:09:02.445Z,12.75
2022-09-12T02:12:07.825Z,12.73
2022-09-12T02:15:12.339Z,12.71
2022-09-12T02:18:16.979Z,12.71
2022-09-12T02:21:20.936Z,12.69
2022-09-12T02:24:24.924Z,12.70
2022-09-12T02:27:40.834Z,12.63
2022-09-12T02:30:52.809Z,12.55
2022-09-12T02:34:27.928Z,12.43
2022-09-12T02:37:32.333Z,12.38
2022-09-12T02:40:34.761Z,12.31
2022-09-12T02:43:36.687Z,12.34
2022-09-12T02:46:46.530Z,12.38
2022-09-12T02:49:48.418Z,12.41
2022-09-12T02:52:51.696Z,12.47
2022-09-12T02:55:53.949Z,12.50
2022-09-12T02:59:01.301Z,12.54
2022-09-12T03:02:38.430Z,12.57
2022-09-12T03:06:00.829Z,12.62
2022-09-12T03:09:30.130Z,12.65
2022-09-12T03:13:02.435Z,12.66
2022-09-12T03:16:19.201Z,12.70
2022-09-12T03:19:25.448Z,12.77
2022-09-12T03:22:51.190Z,12.78
2022-09-12T03:25:59.240Z,12.84
2022-09-12T03:29:03.305Z,12.84
2022-09-12T03:32:04.804Z,12.85
2022-09-12T03:35:06.790Z,12.90
2022-09-12T03:38:08.736Z,12.89
2022-09-12T03:41:10.138Z,12.90
2022-09-12T03:44:11.589Z,12.92
2022-09-12T03:47:12.984Z,12.94
2022-09-12T03:50:14.372Z,12.94
2022-09-12T03:53:17.386Z,12.92
2022-09-12T03:56:18.962Z,12.87
2022-09-12T03:59:20.340Z,12.85
2022-09-12T04:02:21.788Z,12.85
2022-09-12T04:05:25.423Z,12.82
2022-09-12T04:08:26.844Z,12.82
2022-09-12T04:11:28.253Z,12.85
2022-09-12T04:14:29.697Z,12.84
2022-09-12T04:17:31.078Z,12.81
2022-09-12T04:20:32.596Z,12.85
2022-09-12T04:23:34.479Z,12.84
2022-09-12T04:26:35.883Z,12.83
2022-09-12T04:29:37.803Z,12.80
2022-09-12T04:32:39.208Z,12.80
2022-09-12T04:35:40.705Z,12.79
2022-09-12T04:38:44.088Z,12.82
2022-09-12T04:41:45.475Z,12.77
2022-09-12T04:44:48.283Z,12.72
2022-09-12T04:47:49.729Z,12.71
2022-09-12T04:50:51.113Z,12.67
2022-09-12T04:53:54.376Z,12.62
2022-09-12T04:56:55.779Z,12.64
2022-09-12T04:59:57.190Z,12.58
2022-09-12T05:02:58.579Z,12.53
2022-09-12T05:06:03.188Z,12.49
2022-09-12T05:09:06.408Z,12.49
2022-09-12T05:12:07.855Z,12.43
2022-09-12T05:15:09.722Z,12.49
2022-09-12T05:18:11.112Z,12.53
2022-09-12T05:21:15.086Z,12.47
2022-09-12T05:24:16.615Z,12.39
2022-09-12T05:27:18.070Z,12.38
2022-09-12T05:30:19.469Z,12.35
2022-09-12T05:33:24.901Z,12.36
2022-09-12T05:36:30.531Z,12.41
2022-09-12T05:39:31.953Z,12.45
2022-09-12T05:42:33.527Z,12.45
2022-09-12T05:45:34.937Z,12.46
2022-09-12T05:48:37.257Z,12.53
2022-09-12T05:51:44.421Z,12.51
2022-09-12T05:54:45.789Z,12.51
2022-09-12T05:57:47.711Z,12.48
2022-09-12T06:00:49.234Z,12.48
2022-09-12T06:03:53.311Z,12.45
2022-09-12T06:06:54.784Z,12.48
2022-09-12T06:09:56.168Z,12.60
2022-09-12T06:12:57.556Z,12.67
2022-09-12T06:16:10.486Z,12.77
2022-09-12T06:19:15.350Z,12.85
2022-09-12T06:22:16.760Z,12.97
2022-09-12T06:25:18.181Z,13.21
2022-09-12T06:28:19.610Z,13.63
2022-09-12T06:31:23.645Z,14.06
2022-09-12T06:34:25.067Z,14.32
2022-09-12T06:37:26.518Z,14.34
2022-09-12T06:40:27.982Z,14.41
2022-09-12T06:43:29.429Z,14.60
2022-09-12T06:46:31.250Z,14.69
2022-09-12T06:49:33.018Z,14.71
2022-09-12T06:52:34.424Z,14.68
2022-09-12T06:55:38.758Z,14.84
2022-09-12T06:58:42.016Z,15.17
2022-09-12T07:01:43.723Z,15.69
2022-09-12T07:04:45.131Z,17.12
2022-09-12T07:07:46.523Z,18.10
2022-09-12T07:10:47.998Z,18.20
2022-09-12T07:13:54.797Z,17.33
2022-09-12T07:16:56.356Z,17.04
2022-09-12T07:19:58.168Z,16.77
2022-09-12T07:22:59.547Z,17.04
2022-09-12T07:26:01.533Z,17.27
2022-09-12T07:29:32.227Z,18.02
2022-09-12T07:32:24.632Z,18.71
2022-09-12T07:35:26.022Z,18.91
2022-09-12T07:38:28.540Z,19.97
2022-09-12T07:41:31.621Z,20.04
2022-09-12T07:44:33.037Z,20.44
2022-09-12T07:47:34.463Z,20.43
2022-09-12T07:50:36.406Z,20.53
2022-09-12T07:53:40.466Z,21.35
2022-09-12T07:56:41.929Z,21.33
2022-09-12T07:59:52.439Z,21.62
2022-09-12T08:02:54.758Z,21.74
2022-09-12T08:06:03.431Z,22.44
2022-09-12T08:09:10.693Z,22.13
2022-09-12T08:12:12.620Z,21.81
2022-09-12T08:15:14.343Z,22.08
2022-09-12T08:18:15.762Z,21.44
2022-09-12T08:21:18.638Z,21.07
2022-09-12T08:24:20.064Z,21.42
2022-09-12T08:27:21.509Z,21.31
2022-09-12T08:30:22.914Z,21.91
2022-09-12T08:33:24.347Z,22.35
2022-09-12T08:36:28.022Z,22.72
2022-09-12T08:39:29.425Z,23.00
2022-09-12T08:42:51.345Z,22.68
2022-09-12T08:46:02.218Z,22.76
2022-09-12T08:49:09.005Z,22.46
2022-09-12T08:52:38.905Z,23.10
2022-09-12T08:55:43.348Z,23.57
2022-09-12T08:58:46.033Z,23.98
2022-09-12T09:01:50.149Z,23.57
2022-09-12T09:05:04.842Z,23.83
2022-09-12T09:08:35.614Z,23.72
2022-09-12T09:12:18.771Z,24.39
2022-09-12T09:15:26.298Z,24.03
2022-09-12T09:18:31.924Z,24.37
2022-09-12T09:21:48.341Z,23.46
2022-09-12T09:24:55.117Z,24.10
2022-09-12T09:27:56.469Z,24.17
2022-09-12T09:30:58.219Z,23.68
2022-09-12T09:34:00.377Z,23.16
2022-09-12T09:37:15.323Z,23.85
2022-09-12T09:41:03.084Z,24.11
2022-09-12T09:44:04.861Z,23.78
2022-09-12T09:47:11.511Z,24.05
2022-09-12T09:50:16.545Z,23.44
2022-09-12T09:53:35.995Z,24.04
2022-09-12T09:56:41.706Z,23.50
2022-09-12T09:59:43.116Z,24.42
2022-09-12T10:03:17.538Z,23.51
2022-09-12T10:06:30.388Z,23.99
2022-09-12T10:09:36.265Z,24.38
2022-09-12T10:12:37.675Z,24.30
2022-09-12T10:15:39.159Z,24.86
2022-09-12T10:18:42.041Z,24.50
2022-09-12T10:21:52.504Z,24.71
2022-09-12T10:24:58.135Z,24.96
2022-09-12T10:28:00.816Z,25.06
2022-09-12T10:31:02.348Z,24.73
2022-09-12T10:34:04.017Z,24.08
2022-09-12T10:37:08.297Z,24.02
2022-09-12T10:40:24.510Z,24.06
2022-09-12T10:43:34.426Z,24.66
2022-09-12T10:46:35.813Z,24.30
2022-09-12T10:49:37.202Z,24.68
2022-09-12T10:52:38.677Z,24.63
2022-09-12T10:55:43.223Z,24.50
2022-09-12T10:59:07.536Z,24.35
2022-09-12T11:02:23.400Z,24.75
2022-09-12T11:05:52.444Z,24.37
2022-09-12T11:09:16.678Z,24.63
2022-09-12T11:12:37.055Z,25.06
2022-09-12T11:15:44.278Z,24.52
2022-09-12T11:19:02.937Z,24.25
2022-09-12T11:22:31.933Z,24.46
2022-09-12T11:25:52.932Z,24.33
2022-09-12T11:29:10.151Z,24.66
2022-09-12T11:32:42.224Z,24.54
2022-09-12T11:35:55.238Z,24.61
2022-09-12T11:39:15.432Z,24.63
2022-09-12T11:42:33.094Z,24.64
2022-09-12T11:45:41.409Z,24.10
2022-09-12T11:48:57.621Z,24.32
2022-09-12T11:52:15.913Z,24.40
2022-09-12T11:55:22.257Z,24.61
2022-09-12T11:58:27.378Z,24.26
2022-09-12T12:01:40.434Z,24.60
2022-09-12T12:05:04.798Z,25.44
2022-09-12T12:08:06.945Z,25.31
2022-09-12T12:11:09.816Z,25.47
2022-09-12T12:14:31.256Z,25.07
2022-09-12T12:17:33.872Z,25.12
2022-09-12T12:20:35.979Z,24.90
2022-09-12T12:23:37.491Z,24.69
2022-09-12T12:26:38.830Z,24.53
2022-09-12T12:29:44.044Z,24.51
2022-09-12T12:32:45.665Z,24.33
2022-09-12T12:35:59.385Z,24.14
2022-09-12T12:39:20.672Z,24.27
2022-09-12T12:42:30.956Z,24.03
2022-09-12T12:45:35.186Z,23.81
2022-09-12T12:49:02.803Z,24.14
2022-09-12T12:52:04.335Z,24.04
2022-09-12T12:55:16.766Z,24.36
2022-09-12T12:58:35.383Z,24.52
2022-09-12T13:01:36.933Z,24.68
2022-09-12T13:04:44.714Z,24.58
2022-09-12T13:07:46.746Z,24.60
2022-09-12T13:11:16.071Z,25.10
2022-09-12T13:14:42.493Z,25.39
2022-09-12T13:17:45.679Z,25.47
2022-09-12T13:21:03.953Z,25.60
2022-09-12T13:24:14.400Z,25.48
2022-09-12T13:27:24.524Z,25.83
2022-09-12T13:30:26.735Z,25.61
2022-09-12T13:33:39.950Z,25.59
2022-09-12T13:36:57.149Z,25.45
2022-09-12T13:40:29.763Z,25.30
2022-09-12T13:43:43.152Z,25.34
2022-09-12T13:46:45.059Z,25.29
2022-09-12T13:49:46.517Z,24.93
2022-09-12T13:52:58.134Z,25.06
2022-09-12T13:56:00.304Z,24.92
2022-09-12T13:59:02.559Z,24.76
2022-09-12T14:02:18.449Z,24.40
2022-09-12T14:05:24.515Z,24.11
2022-09-12T14:08:25.969Z,24.46
2022-09-12T14:11:29.476Z,24.35
2022-09-12T14:14:35.233Z,24.42
2022-09-12T14:17:38.778Z,24.66
2022-09-12T14:20:41.513Z,24.54
2022-09-12T14:23:45.310Z,24.41
2022-09-12T14:26:47.135Z,24.39
2022-09-12T14:29:49.432Z,24.34
2022-09-12T14:33:21.369Z,24.45
2022-09-12T14:36:45.364Z,24.61
2022-09-12T14:39:46.760Z,24.36
2022-09-12T14:42:50.500Z,24.29
2022-09-12T14:45:58.382Z,24.41
2022-09-12T14:49:12.807Z,24.56
2022-09-12T14:52:28.331Z,24.60
2022-09-12T14:55:32.476Z,24.54
2022-09-12T14:58:34.289Z,24.78
2022-09-12T15:01:35.882Z,24.64
2022-09-12T15:04:41.835Z,24.54
2022-09-12T15:07:51.020Z,24.48
2022-09-12T15:10:52.745Z,24.41
2022-09-12T15:13:54.466Z,24.33
2022-09-12T15:16:55.889Z,24.44
2022-09-12T15:19:57.286Z,24.64
2022-09-12T15:22:58.920Z,24.59
2022-09-12T15:26:00.686Z,24.47
2022-09-12T15:29:02.094Z,24.08
2022-09-12T15:32:03.877Z,23.99
2022-09-12T15:35:21.860Z,24.00
2022-09-12T15:38:26.595Z,24.20
2022-09-12T15:41:32.316Z,24.33
2022-09-12T15:44:33.713Z,24.10
2022-09-12T15:47:35.129Z,23.65
2022-09-12T15:50:36.540Z,23.21
2022-09-12T15:53:38.032Z,23.13
2022-09-12T15:56:39.442Z,23.06
2022-09-12T15:59:40.873Z,22.89
2022-09-12T16:02:42.365Z,22.90
2022-09-12T16:05:43.801Z,22.88
2022-09-12T16:08:45.248Z,22.70
2022-09-12T16:11:46.731Z,22.61
2022-09-12T16:14:48.129Z,22.45
2022-09-12T16:17:50.326Z,22.33
2022-09-12T16:20:53.194Z,22.18
2022-09-12T16:23:54.621Z,22.02
2022-09-12T16:27:00.908Z,21.92
2022-09-12T16:30:04.795Z,21.83
2022-09-12T16:33:06.196Z,21.77
2022-09-12T16:36:10.139Z,21.80
2022-09-12T16:39:11.567Z,21.76
2022-09-12T16:42:13.060Z,21.78
2022-09-12T16:45:14.599Z,21.85
2022-09-12T16:48:16.255Z,21.94
2022-09-12T16:51:20.178Z,21.87
2022-09-12T16:54:21.802Z,21.81
2022-09-12T16:57:24.406Z,21.72
2022-09-12T17:00:25.846Z,21.61
2022-09-12T17:03:27.501Z,21.51
2022-09-12T17:06:29.011Z,21.42
2022-09-12T17:09:30.448Z,21.35
2022-09-12T17:12:31.852Z,21.29
2022-09-12T17:15:36.750Z,21.22
2022-09-12T17:18:38.691Z,21.17
2022-09-12T17:21:40.130Z,21.15
2022-09-12T17:24:41.542Z,21.12
2022-09-12T17:27:42.965Z,21.09
2022-09-12T17:30:44.505Z,21.02
2022-09-12T17:33:46.075Z,20.93
2022-09-12T17:36:47.577Z,20.83
2022-09-12T17:39:49.090Z,20.79
2022-09-12T17:42:50.512Z,20.70
2022-09-12T17:45:57.788Z,20.56
2022-09-12T17:48:59.461Z,20.42
2022-09-12T17:52:01.022Z,20.31
2022-09-12T17:55:02.943Z,20.16
2022-09-12T17:58:04.347Z,20.03
2022-09-12T18:01:13.895Z,19.90
2022-09-12T18:04:15.913Z,19.77
2022-09-12T18:07:19.074Z,19.65
2022-09-12T18:10:20.566Z,19.56
2022-09-12T18:13:22.274Z,19.44
2022-09-12T18:16:23.780Z,19.38
2022-09-12T18:19:25.681Z,19.30
2022-09-12T18:22:27.096Z,19.17
2022-09-12T18:25:28.473Z,19.10
2022-09-12T18:28:33.141Z,19.05
2022-09-12T18:31:34.843Z,18.95
2022-09-12T18:34:36.335Z,18.96
2022-09-12T18:37:37.949Z,18.87
2022-09-12T18:40:39.336Z,18.78
2022-09-12T18:43:41.369Z,18.72
2022-09-12T18:46:42.820Z,18.67
2022-09-12T18:49:44.250Z,18.67
2022-09-12T18:52:45.653Z,18.67
2022-09-12T18:55:47.089Z,18.58
2022-09-12T18:58:53.491Z,18.51
2022-09-12T19:01:55.116Z,18.50
2022-09-12T19:04:56.616Z,18.57
2022-09-12T19:07:58.062Z,18.68
2022-09-12T19:10:59.492Z,18.78
2022-09-12T19:14:00.946Z,18.90
2022-09-12T19:17:02.412Z,18.99
2022-09-12T19:20:04.059Z,19.06
2022-09-12T19:23:05.475Z,19.10
2022-09-12T19:26:09.175Z,19.13
2022-09-12T19:29:11.843Z,19.16
2022-09-12T19:32:13.372Z,19.18
2022-09-12T19:35:14.832Z,19.16
2022-09-12T19:38:17.015Z,19.11
2022-09-12T19:41:18.439Z,19.01
2022-09-12T19:44:19.827Z,18.92
2022-09-12T19:47:21.782Z,18.85
2022-09-12T19:50:23.531Z,18.74
2022-09-12T19:53:25.035Z,18.66
2022-09-12T19:56:26.428Z,18.53
2022-09-12T19:59:27.865Z,18.43
2022-09-12T20:02:29.285Z,18.34
2022-09-12T20:05:32.540Z,18.25
2022-09-12T20:08:34.452Z,18.15
2022-09-12T20:11:35.843Z,18.08
2022-09-12T20:14:37.261Z,17.95
2022-09-12T20:17:38.943Z,17.87
2022-09-12T20:20:40.366Z,17.81
2022-09-12T20:23:41.933Z,17.79
2022-09-12T20:26:43.428Z,17.79
2022-09-12T20:29:44.815Z,17.80
2022-09-12T20:32:46.243Z,17.79
2022-09-12T20:35:47.640Z,17.72
2022-09-12T20:38:51.681Z,17.62
2022-09-12T20:41:53.017Z,17.51
2022-09-12T20:44:54.493Z,17.43
2022-09-12T20:47:55.889Z,17.39
2022-09-12T20:51:00.179Z,17.41
2022-09-12T20:54:03.746Z,17.43
2022-09-12T20:57:05.184Z,17.47
2022-09-12T21:00:07.139Z,17.50
2022-09-12T21:03:08.554Z,17.58
2022-09-12T21:06:11.184Z,17.62
2022-09-12T21:09:12.614Z,17.65
2022-09-12T21:12:14.025Z,17.67
2022-09-12T21:15:15.497Z,17.69
2022-09-12T21:18:16.892Z,17.70
2022-09-12T21:21:18.280Z,17.72
2022-09-12T21:24:19.782Z,17.77
2022-09-12T21:27:21.181Z,17.80
2022-09-12T21:30:22.605Z,17.83
2022-09-12T21:33:24.159Z,17.88
2022-09-12T21:36:25.619Z,17.95
2022-09-12T21:39:26.995Z,18.04
2022-09-12T21:42:28.466Z,18.08
2022-09-12T21:45:29.966Z,18.14
2022-09-12T21:48:31.731Z,18.19
2022-09-12T21:51:33.165Z,18.23
2022-09-12T21:54:34.569Z,18.25
2022-09-12T21:57:35.949Z,18.24
2022-09-12T22:00:37.510Z,18.21
2022-09-12T22:03:39.021Z,18.21
2022-09-12T22:06:40.410Z,18.25
2022-09-12T22:09:42.179Z,18.32
2022-09-12T22:12:46.029Z,18.38
2022-09-12T22:15:52.005Z,18.40
2022-09-12T22:18:53.478Z,18.42
2022-09-12T22:21:55.060Z,18.43
2022-09-12T22:24:56.486Z,18.44
2022-09-12T22:27:57.882Z,18.46
2022-09-12T22:30:59.319Z,18.46
2022-09-12T22:34:00.839Z,18.44
2022-09-12T22:37:02.253Z,18.42
2022-09-12T22:40:03.981Z,18.39
2022-09-12T22:43:05.411Z,18.36
2022-09-12T22:46:11.478Z,18.31
2022-09-12T22:49:12.928Z,18.25
2022-09-12T22:52:15.101Z,18.21
2022-09-12T22:55:16.477Z,18.18
2022-09-12T22:58:17.974Z,18.15
2022-09-12T23:01:19.653Z,18.15
2022-09-12T23:04:21.224Z,18.16
2022-09-12T23:07:22.650Z,18.08
2022-09-12T23:10:24.051Z,17.97
2022-09-12T23:13:25.442Z,17.87
2022-09-12T23:16:26.910Z,17.79
2022-09-12T23:19:28.365Z,17.78
2022-09-12T23:22:29.967Z,17.77
2022-09-12T23:25:31.356Z,17.74
2022-09-12T23:28:33.662Z,17.75
2022-09-12T23:31:35.263Z,17.72
2022-09-12T23:34:36.679Z,17.69
2022-09-12T23:37:38.113Z,17.66
2022-09-12T23:40:39.507Z,17.65
2022-09-12T23:43:41.741Z,17.65
2022-09-12T23:46:43.221Z,17.66
2022-09-12T23:49:44.645Z,17.72
2022-09-12T23:52:46.037Z,17.76
2022-09-12T23:55:47.804Z,17.79
2022-09-12T23:58:49.366Z,17.81
